Time;durP1;ratioP1;P1;durP2;ratioP2;P2;SDS_P1;SDS_P2;PMS_P1;PMS_P2;Temp;Humidity;BMP_temperature;BMP_pressure;BME280_temperature;BME280_humidity;BME280_pressure;Samples;Min_cycle;Max_cycle;Signal;HPM_P1;HPM_P2
2023/04/11 00:00:26;;;;;;;7.38;2.50;;;9.40;99.90;;;;;;4942233;28;20065;-54
2023/04/11 00:02:53;;;;;;;10.43;3.03;;;9.40;99.90;;;;;;4940008;28;20050;-53
2023/04/11 00:05:19;;;;;;;9.38;2.60;;;9.30;99.90;;;;;;4943738;28;20049;-53
2023/04/11 00:07:45;;;;;;;8.95;2.35;;;9.20;99.90;;;;;;4940366;28;20051;-53
2023/04/11 00:10:11;;;;;;;6.85;2.30;;;9.10;99.90;;;;;;4941297;28;20043;-54
2023/04/11 00:12:37;;;;;;;9.00;2.67;;;8.90;99.90;;;;;;4943484;28;20075;-52
2023/04/11 00:15:03;;;;;;;11.40;2.10;;;8.90;99.90;;;;;;4932780;28;20660;-53
2023/04/11 00:17:30;;;;;;;8.45;1.92;;;8.90;99.90;;;;;;4942162;28;20051;-55
2023/04/11 00:20:06;;;;;;;10.18;2.38;;;8.80;99.90;;;;;;4942220;28;20129;-52
2023/04/11 00:22:35;;;;;;;11.68;2.50;;;8.80;99.90;;;;;;4937712;28;20055;-53
2023/04/11 00:25:01;;;;;;;12.23;2.58;;;8.80;99.90;;;;;;4928540;28;20054;-53
2023/04/11 00:27:27;;;;;;;11.45;2.47;;;8.70;99.90;;;;;;4943989;28;20383;-55
2023/04/11 00:29:55;;;;;;;16.75;2.53;;;8.70;99.90;;;;;;4943622;28;20050;-52
2023/04/11 00:32:21;;;;;;;10.55;3.03;;;8.60;99.90;;;;;;4940385;28;20055;-53
2023/04/11 00:34:47;;;;;;;14.07;3.00;;;8.60;99.90;;;;;;4942298;28;20512;-54
2023/04/11 00:37:13;;;;;;;15.45;2.85;;;8.60;99.90;;;;;;4948862;28;20137;-53
2023/04/11 00:39:39;;;;;;;13.43;2.67;;;8.50;99.90;;;;;;4939140;28;20047;-55
2023/04/11 00:42:06;;;;;;;11.75;2.88;;;8.50;99.90;;;;;;4938896;28;20574;-53
2023/04/11 00:44:33;;;;;;;13.52;2.70;;;8.40;99.90;;;;;;4941332;28;20055;-55
2023/04/11 00:47:01;;;;;;;14.48;3.08;;;8.40;99.90;;;;;;4946824;28;20050;-53
2023/04/11 00:49:28;;;;;;;15.68;3.42;;;8.30;99.90;;;;;;4942216;28;20039;-53
2023/04/11 00:51:54;;;;;;;18.10;3.72;;;8.30;99.90;;;;;;4944360;28;20057;-53
2023/04/11 00:54:19;;;;;;;12.90;3.17;;;8.20;99.90;;;;;;4940527;28;20065;-55
2023/04/11 00:56:45;;;;;;;10.48;2.58;;;8.20;99.90;;;;;;4944986;28;20054;-54
2023/04/11 00:59:11;;;;;;;18.95;3.40;;;8.20;99.90;;;;;;4941413;28;20761;-55
2023/04/11 01:01:37;;;;;;;16.70;2.75;;;8.20;99.90;;;;;;4941578;28;20061;-57
2023/04/11 01:04:04;;;;;;;19.77;3.10;;;8.10;99.90;;;;;;4936980;28;20419;-55
2023/04/11 01:06:31;;;;;;;16.23;3.38;;;8.10;99.90;;;;;;4943389;28;20126;-56
2023/04/11 01:08:57;;;;;;;21.85;3.78;;;8.10;99.90;;;;;;4943444;28;20046;-53
2023/04/11 01:11:23;;;;;;;18.08;3.10;;;8.10;99.90;;;;;;4936035;28;20054;-54
2023/04/11 01:13:49;;;;;;;18.33;2.95;;;8.00;99.90;;;;;;4942652;28;20053;-54
2023/04/11 01:16:20;;;;;;;19.45;3.05;;;8.00;99.90;;;;;;4942285;28;20054;-54
2023/04/11 01:18:47;;;;;;;18.02;3.10;;;8.00;99.90;;;;;;4943336;28;20539;-57
2023/04/11 01:21:13;;;;;;;16.98;3.88;;;7.90;99.90;;;;;;4947459;28;20046;-53
2023/04/11 01:23:39;;;;;;;17.42;3.47;;;7.90;99.90;;;;;;4931219;28;20618;-53
2023/04/11 01:26:06;;;;;;;18.63;3.63;;;7.90;99.90;;;;;;4933576;28;20134;-54
2023/04/11 01:28:31;;;;;;;24.65;3.53;;;7.80;99.90;;;;;;4943412;28;20081;-52
2023/04/11 01:30:57;;;;;;;18.55;3.10;;;7.80;99.90;;;;;;4940620;28;22375;-52
2023/04/11 01:33:23;;;;;;;15.45;3.40;;;7.80;99.90;;;;;;4942887;28;20378;-52
2023/04/11 01:35:49;;;;;;;19.48;3.58;;;7.80;99.90;;;;;;4944715;28;20039;-56
2023/04/11 01:38:15;;;;;;;13.18;2.70;;;7.80;99.90;;;;;;4946141;28;20149;-53
2023/04/11 01:40:42;;;;;;;17.50;3.03;;;7.70;99.90;;;;;;4937908;28;20042;-53
2023/04/11 01:43:08;;;;;;;14.93;2.80;;;7.80;99.90;;;;;;4942765;28;20078;-54
2023/04/11 01:45:35;;;;;;;15.82;2.65;;;7.80;99.90;;;;;;4941239;28;20047;-53
2023/04/11 01:48:06;;;;;;;13.75;2.83;;;7.80;99.90;;;;;;4943423;28;20047;-53
2023/04/11 01:50:32;;;;;;;11.52;2.20;;;7.80;99.90;;;;;;4941089;28;20126;-53
2023/04/11 01:52:57;;;;;;;12.55;2.13;;;7.80;99.90;;;;;;4941410;28;20443;-53
2023/04/11 01:55:23;;;;;;;10.30;2.00;;;7.80;99.90;;;;;;4940385;28;20043;-54
2023/04/11 01:57:49;;;;;;;8.95;1.67;;;7.80;99.90;;;;;;4944770;28;20218;-52
2023/04/11 02:00:15;;;;;;;8.05;1.48;;;7.80;99.90;;;;;;4942526;28;20566;-53
2023/04/11 02:02:41;;;;;;;7.72;2.30;;;7.80;99.90;;;;;;4943010;28;20054;-53
2023/04/11 02:05:07;;;;;;;7.75;1.70;;;7.80;99.90;;;;;;4939827;28;20117;-53
2023/04/11 02:07:32;;;;;;;11.75;1.60;;;7.80;99.90;;;;;;4940949;28;20133;-52
2023/04/11 02:09:59;;;;;;;9.95;1.75;;;7.80;99.90;;;;;;4941834;28;20071;-52
2023/04/11 02:12:25;;;;;;;9.20;1.60;;;7.80;99.90;;;;;;4943900;28;20058;-56
2023/04/11 02:14:51;;;;;;;5.90;1.23;;;7.80;99.90;;;;;;4943059;28;20479;-53
2023/04/11 02:17:17;;;;;;;5.53;1.10;;;7.80;99.90;;;;;;4943735;28;20397;-53
2023/04/11 02:19:44;;;;;;;5.60;1.38;;;7.70;99.90;;;;;;4940796;28;20054;-53
2023/04/11 02:22:15;;;;;;;5.50;1.02;;;7.70;99.90;;;;;;4940031;28;20077;-56
2023/04/11 02:24:41;;;;;;;3.03;1.02;;;7.70;99.90;;;;;;4928980;28;20390;-52
2023/04/11 02:27:07;;;;;;;5.15;1.00;;;7.70;99.90;;;;;;4938428;28;20111;-52
2023/04/11 02:29:33;;;;;;;2.97;1.00;;;7.70;99.90;;;;;;4944020;28;20483;-53
2023/04/11 02:31:59;;;;;;;7.75;1.33;;;7.70;99.90;;;;;;4942636;28;20043;-53
2023/04/11 02:34:25;;;;;;;7.80;1.33;;;7.70;99.90;;;;;;4942531;28;20043;-54
2023/04/11 02:36:51;;;;;;;2.45;0.93;;;7.70;99.90;;;;;;4941737;28;20097;-54
2023/04/11 02:39:25;;;;;;;3.78;1.30;;;7.70;99.90;;;;;;4939930;28;20708;-53
2023/04/11 02:41:51;;;;;;;5.85;1.20;;;7.60;99.90;;;;;;4939321;28;20066;-53
2023/04/11 02:44:17;;;;;;;5.38;1.35;;;7.70;99.90;;;;;;4944363;28;20543;-53
2023/04/11 02:46:43;;;;;;;6.13;1.65;;;7.70;99.90;;;;;;4943442;28;20469;-52
2023/04/11 02:49:09;;;;;;;4.63;1.38;;;7.70;99.90;;;;;;4939532;28;20039;-52
2023/04/11 02:51:35;;;;;;;7.53;1.52;;;7.70;99.90;;;;;;4941926;28;20050;-56
2023/04/11 02:54:01;;;;;;;8.00;1.60;;;7.70;99.90;;;;;;4940879;28;20042;-54
2023/04/11 02:56:29;;;;;;;4.80;1.30;;;7.70;99.90;;;;;;4942879;28;20367;-53
2023/04/11 02:58:55;;;;;;;5.47;1.35;;;7.70;99.90;;;;;;4943402;28;20055;-52
2023/04/11 03:01:23;;;;;;;7.00;1.70;;;7.70;99.90;;;;;;4941757;28;20138;-54
2023/04/11 03:03:49;;;;;;;4.53;1.40;;;7.70;99.90;;;;;;4945998;28;20039;-53
2023/04/11 03:06:15;;;;;;;6.22;1.38;;;7.70;99.90;;;;;;4945995;28;20073;-53
2023/04/11 03:08:41;;;;;;;3.65;1.70;;;7.70;99.90;;;;;;4949200;28;20653;-53
2023/04/11 03:11:06;;;;;;;6.90;1.75;;;7.70;99.90;;;;;;4947066;28;20043;-53
2023/04/11 03:13:32;;;;;;;5.97;1.80;;;7.70;99.90;;;;;;4950205;28;20524;-53
2023/04/11 03:15:58;;;;;;;10.07;1.98;;;7.70;99.90;;;;;;4945661;28;20215;-53
2023/04/11 03:18:24;;;;;;;7.03;1.77;;;7.70;99.90;;;;;;4946766;28;20055;-52
2023/04/11 03:20:50;;;;;;;6.65;2.13;;;7.70;99.90;;;;;;4948270;28;20042;-52
2023/04/11 03:23:16;;;;;;;5.97;2.00;;;7.70;99.90;;;;;;4944865;28;20486;-53
2023/04/11 03:25:46;;;;;;;9.95;2.03;;;7.60;99.90;;;;;;4941899;28;20129;-53
2023/04/11 03:28:13;;;;;;;13.88;2.55;;;7.60;99.90;;;;;;4936171;28;20556;-54
2023/04/11 03:30:41;;;;;;;6.82;2.00;;;7.70;99.90;;;;;;4935455;28;20428;-53
2023/04/11 03:33:07;;;;;;;8.25;2.08;;;7.70;99.90;;;;;;4948062;28;20051;-52
2023/04/11 03:35:33;;;;;;;6.93;1.95;;;7.70;99.90;;;;;;4944642;28;20055;-54
2023/04/11 03:37:58;;;;;;;7.47;1.98;;;7.60;99.90;;;;;;4944116;28;21232;-52
2023/04/11 03:40:24;;;;;;;8.77;2.30;;;7.70;99.90;;;;;;4943648;28;20503;-52
2023/04/11 03:42:50;;;;;;;15.27;2.38;;;7.60;99.90;;;;;;4943096;28;20059;-53
2023/04/11 03:45:16;;;;;;;11.50;2.28;;;7.60;99.90;;;;;;4942087;28;20382;-53
2023/04/11 03:47:42;;;;;;;13.40;2.45;;;7.60;99.90;;;;;;4947851;28;20081;-53
2023/04/11 03:50:09;;;;;;;8.10;2.22;;;7.60;99.90;;;;;;4944927;28;20043;-52
2023/04/11 03:52:35;;;;;;;10.38;2.22;;;7.60;99.90;;;;;;4925488;28;21543;-53
2023/04/11 03:55:01;;;;;;;12.93;2.92;;;7.60;99.90;;;;;;4943128;28;20405;-56
2023/04/11 03:57:27;;;;;;;7.88;2.13;;;7.60;99.90;;;;;;4942156;28;20137;-52
2023/04/11 03:59:56;;;;;;;10.15;2.55;;;7.70;99.90;;;;;;4941492;28;20121;-54
2023/04/11 04:02:21;;;;;;;10.95;2.92;;;7.70;99.90;;;;;;4945267;28;20046;-52
2023/04/11 04:04:57;;;;;;;11.23;2.50;;;7.70;99.90;;;;;;4945365;28;20576;-52
2023/04/11 04:07:24;;;;;;;15.85;2.55;;;7.70;99.90;;;;;;4942471;28;20047;-53
2023/04/11 04:09:50;;;;;;;13.77;3.08;;;7.70;99.90;;;;;;4942538;28;20043;-54
2023/04/11 04:12:18;;;;;;;15.30;2.95;;;7.70;99.90;;;;;;4946152;28;20118;-52
2023/04/11 04:14:45;;;;;;;12.15;2.92;;;7.70;99.90;;;;;;4943907;28;20047;-54
2023/04/11 04:17:13;;;;;;;13.60;2.75;;;7.80;99.90;;;;;;4942435;28;20047;-53
2023/04/11 04:19:39;;;;;;;14.27;3.03;;;7.80;99.90;;;;;;4944382;28;20085;-53
2023/04/11 04:22:10;;;;;;;11.73;2.95;;;7.80;99.90;;;;;;4945051;28;20573;-53
2023/04/11 04:24:41;;;;;;;15.13;2.83;;;7.80;99.90;;;;;;4943961;28;20134;-56
2023/04/11 04:27:12;;;;;;;12.35;2.90;;;7.90;99.90;;;;;;4943208;28;20051;-53
2023/04/11 04:29:45;;;;;;;12.40;3.08;;;7.80;99.90;;;;;;4933643;28;21237;-52
2023/04/11 04:32:19;;;;;;;15.07;2.97;;;7.80;99.90;;;;;;4945283;28;20035;-52
2023/04/11 04:34:48;;;;;;;9.43;2.80;;;7.80;99.90;;;;;;4941173;28;20043;-54
2023/04/11 04:37:20;;;;;;;10.95;2.90;;;7.90;99.90;;;;;;4943946;28;20434;-53
2023/04/11 04:40:06;;;;;;;12.02;3.00;;;7.80;99.90;;;;;;4934327;28;20054;-54
2023/04/11 04:42:33;;;;;;;10.85;3.10;;;7.80;99.90;;;;;;4943375;28;20066;-53
2023/04/11 04:44:59;;;;;;;10.35;2.70;;;7.80;99.90;;;;;;4944344;28;20047;-54
2023/04/11 04:47:35;;;;;;;10.95;3.33;;;7.80;99.90;;;;;;4945476;28;20428;-53
2023/04/11 04:50:01;;;;;;;9.88;2.90;;;7.80;99.90;;;;;;4942618;28;20485;-52
2023/04/11 04:52:28;;;;;;;13.25;3.38;;;7.70;99.90;;;;;;4943914;28;20101;-52
2023/04/11 04:54:58;;;;;;;15.77;3.50;;;7.70;99.90;;;;;;4942401;28;20066;-54
2023/04/11 04:57:24;;;;;;;9.57;2.92;;;7.70;99.90;;;;;;4943045;28;20043;-54
2023/04/11 04:59:50;;;;;;;11.93;2.92;;;7.70;99.90;;;;;;4943293;28;20130;-53
2023/04/11 05:02:16;;;;;;;19.45;3.28;;;7.80;99.90;;;;;;4944263;28;20047;-55
2023/04/11 05:04:43;;;;;;;17.23;3.28;;;7.70;99.90;;;;;;4939115;28;20520;-53
2023/04/11 05:07:12;;;;;;;15.18;3.40;;;7.70;99.90;;;;;;4940351;28;20107;-52
2023/04/11 05:09:38;;;;;;;10.32;2.95;;;7.70;99.90;;;;;;4938446;28;20051;-56
2023/04/11 05:12:04;;;;;;;12.65;3.00;;;7.80;99.90;;;;;;4938199;28;20039;-53
2023/04/11 05:14:30;;;;;;;11.15;3.15;;;7.80;99.90;;;;;;4942759;28;20078;-55
2023/04/11 05:16:56;;;;;;;15.88;3.20;;;7.70;99.90;;;;;;4937967;28;20137;-52
2023/04/11 05:19:21;;;;;;;12.02;2.47;;;7.70;99.90;;;;;;4939708;28;20133;-54
2023/04/11 05:21:47;;;;;;;7.57;1.90;;;7.60;99.90;;;;;;4939317;28;20324;-53
2023/04/11 05:24:13;;;;;;;7.63;2.30;;;7.60;99.90;;;;;;4939878;28;20035;-53
2023/04/11 05:26:39;;;;;;;8.50;2.40;;;7.50;99.90;;;;;;4934616;28;20165;-53
2023/04/11 05:29:05;;;;;;;6.95;2.33;;;7.40;99.90;;;;;;4936895;28;20035;-54
2023/04/11 05:31:31;;;;;;;11.90;2.40;;;7.40;99.90;;;;;;4936668;28;20167;-57
2023/04/11 05:33:57;;;;;;;12.93;3.33;;;7.30;99.90;;;;;;4935084;28;20087;-54
2023/04/11 05:36:23;;;;;;;12.75;2.88;;;7.30;99.90;;;;;;4929651;28;20038;-57
2023/04/11 05:38:49;;;;;;;12.65;3.17;;;7.30;99.90;;;;;;4930466;28;20441;-54
2023/04/11 05:41:15;;;;;;;9.18;2.70;;;7.30;99.90;;;;;;4917589;28;20055;-53
2023/04/11 05:43:41;;;;;;;13.20;3.75;;;7.30;99.90;;;;;;4934555;28;20138;-53
2023/04/11 05:46:07;;;;;;;16.98;3.22;;;7.30;99.90;;;;;;4943384;28;20425;-53
2023/04/11 05:48:33;;;;;;;15.80;3.60;;;7.30;99.90;;;;;;4928593;28;20051;-53
2023/04/11 05:50:59;;;;;;;11.60;3.33;;;7.40;99.90;;;;;;4940667;28;20650;-52
2023/04/11 05:53:25;;;;;;;12.25;3.40;;;7.40;99.90;;;;;;4934982;28;20067;-53
2023/04/11 05:55:51;;;;;;;14.77;3.67;;;7.50;99.90;;;;;;4933123;28;20046;-55
2023/04/11 05:58:17;;;;;;;10.55;3.15;;;7.40;99.90;;;;;;4935949;28;20510;-57
2023/04/11 06:00:44;;;;;;;18.02;3.67;;;7.50;99.90;;;;;;4935373;28;20042;-54
2023/04/11 06:03:10;;;;;;;12.20;3.00;;;7.50;99.90;;;;;;4931283;28;20066;-52
2023/04/11 06:05:36;;;;;;;15.70;3.10;;;7.60;99.90;;;;;;4937639;28;20654;-52
2023/04/11 06:08:04;;;;;;;14.95;3.55;;;7.60;99.90;;;;;;4937613;28;20508;-55
2023/04/11 06:10:30;;;;;;;21.10;3.80;;;7.60;99.90;;;;;;4937207;28;20094;-52
2023/04/11 06:12:56;;;;;;;16.60;3.28;;;7.60;99.90;;;;;;4935812;28;20051;-57
2023/04/11 06:15:24;;;;;;;15.65;3.70;;;7.70;99.90;;;;;;4942737;28;20493;-57
2023/04/11 06:17:50;;;;;;;14.13;3.50;;;7.70;99.90;;;;;;4946168;28;20201;-57
2023/04/11 06:20:16;;;;;;;13.60;3.80;;;7.70;99.90;;;;;;4944416;28;20051;-54
2023/04/11 06:22:43;;;;;;;12.35;4.00;;;7.70;99.90;;;;;;4942859;28;20050;-55
2023/04/11 06:25:09;;;;;;;19.23;3.95;;;7.80;99.90;;;;;;4942785;28;20053;-54
2023/04/11 06:27:35;;;;;;;20.40;4.38;;;7.80;99.90;;;;;;4943369;28;20051;-56
2023/04/11 06:30:01;;;;;;;19.13;3.42;;;7.80;99.90;;;;;;4944631;28;20090;-57
2023/04/11 06:32:27;;;;;;;18.08;3.67;;;7.90;99.90;;;;;;4942439;28;20046;-57
2023/04/11 06:34:53;;;;;;;18.88;3.75;;;7.90;99.90;;;;;;4943336;28;20081;-55
2023/04/11 06:37:19;;;;;;;14.25;3.55;;;7.90;99.90;;;;;;4945910;28;20043;-57
2023/04/11 06:39:45;;;;;;;15.60;3.40;;;7.90;99.90;;;;;;4945295;28;20117;-58
2023/04/11 06:42:11;;;;;;;22.00;3.83;;;7.90;99.90;;;;;;4946776;28;20525;-56
2023/04/11 06:44:36;;;;;;;21.67;4.20;;;7.90;99.90;;;;;;4947031;28;20414;-57
2023/04/11 06:47:02;;;;;;;16.40;3.08;;;7.90;99.90;;;;;;4945135;28;20191;-57
2023/04/11 06:49:28;;;;;;;15.32;3.88;;;7.90;99.90;;;;;;4939304;28;20046;-57
2023/04/11 06:51:54;;;;;;;14.02;4.03;;;7.90;99.90;;;;;;4935445;28;20062;-54
2023/04/11 06:54:21;;;;;;;17.15;3.40;;;7.90;99.90;;;;;;4945574;28;20751;-57
2023/04/11 06:56:49;;;;;;;20.67;4.40;;;7.80;99.90;;;;;;4939886;28;20087;-56
2023/04/11 06:59:18;;;;;;;12.80;3.33;;;7.80;99.90;;;;;;4946527;28;20055;-57
2023/04/11 07:01:44;;;;;;;27.23;3.60;;;7.80;99.90;;;;;;4947706;28;20470;-58
2023/04/11 07:04:09;;;;;;;16.17;3.10;;;7.90;99.90;;;;;;4949336;28;20362;-59
2023/04/11 07:06:35;;;;;;;13.55;3.53;;;7.90;99.90;;;;;;4949213;28;20417;-57
2023/04/11 07:09:04;;;;;;;22.27;3.50;;;7.90;99.90;;;;;;4944822;28;20573;-57
2023/04/11 07:11:31;;;;;;;20.55;3.92;;;8.00;99.90;;;;;;4948045;28;20461;-57
2023/04/11 07:14:01;;;;;;;18.70;3.35;;;8.00;99.90;;;;;;4946461;28;20497;-58
2023/04/11 07:16:26;;;;;;;17.15;3.40;;;8.10;99.90;;;;;;4948398;28;20047;-58
2023/04/11 07:18:53;;;;;;;16.25;3.38;;;8.10;99.90;;;;;;4949223;28;20612;-56
2023/04/11 07:21:20;;;;;;;16.80;3.40;;;8.20;99.90;;;;;;4946688;28;20118;-58
2023/04/11 07:23:46;;;;;;;17.80;3.58;;;8.20;99.90;;;;;;4949094;28;20097;-56
2023/04/11 07:26:13;;;;;;;15.27;3.78;;;8.30;99.90;;;;;;4946115;28;20398;-57
2023/04/11 07:28:40;;;;;;;15.45;3.03;;;8.30;99.90;;;;;;4947893;28;21573;-55
2023/04/11 07:31:06;;;;;;;15.05;3.40;;;8.40;99.90;;;;;;4947249;28;20243;-57
2023/04/11 07:33:36;;;;;;;16.38;3.10;;;8.40;99.90;;;;;;4946402;28;20392;-54
2023/04/11 07:36:03;;;;;;;14.75;3.22;;;8.50;99.90;;;;;;4946260;28;20097;-58
2023/04/11 07:38:29;;;;;;;15.13;3.35;;;8.50;99.90;;;;;;4945545;28;20509;-54
2023/04/11 07:40:56;;;;;;;13.52;3.17;;;8.60;99.90;;;;;;4946548;28;20189;-56
2023/04/11 07:43:26;;;;;;;15.55;2.72;;;8.60;99.90;;;;;;4948045;28;20501;-58
2023/04/11 07:45:53;;;;;;;17.45;3.15;;;8.70;99.90;;;;;;4947680;28;20070;-55
2023/04/11 07:48:23;;;;;;;13.20;2.70;;;8.70;99.90;;;;;;4946661;28;20057;-55
2023/04/11 07:50:48;;;;;;;19.38;3.75;;;8.80;99.90;;;;;;4946802;28;20507;-57
2023/04/11 07:53:14;;;;;;;21.45;3.40;;;8.80;99.90;;;;;;4945739;28;20043;-58
2023/04/11 07:55:40;;;;;;;11.60;3.08;;;8.80;99.90;;;;;;4945764;28;20094;-57
2023/04/11 07:58:06;;;;;;;10.60;2.90;;;8.80;99.90;;;;;;4938317;28;20105;-58
2023/04/11 08:00:33;;;;;;;15.77;3.08;;;8.80;99.90;;;;;;4946959;28;20038;-54
2023/04/11 08:03:07;;;;;;;12.73;2.60;;;8.70;99.90;;;;;;4951206;28;20035;-55
2023/04/11 08:05:34;;;;;;;14.77;2.90;;;8.70;99.90;;;;;;4936151;28;20148;-55
2023/04/11 08:08:04;;;;;;;12.07;3.17;;;8.70;99.90;;;;;;4947854;28;20081;-55
2023/04/11 08:10:29;;;;;;;12.82;2.85;;;8.70;99.90;;;;;;4948101;28;20047;-55
2023/04/11 08:12:57;;;;;;;17.35;3.38;;;8.70;99.90;;;;;;4946584;28;20583;-54
2023/04/11 08:15:23;;;;;;;14.10;2.38;;;8.80;99.90;;;;;;4946348;28;20452;-54
2023/04/11 08:17:50;;;;;;;14.85;3.10;;;8.90;99.90;;;;;;4947538;28;20051;-56
2023/04/11 08:20:16;;;;;;;15.73;2.85;;;9.00;99.90;;;;;;4947836;28;20058;-55
2023/04/11 08:22:45;;;;;;;15.02;2.97;;;9.10;99.90;;;;;;4947538;28;20282;-56
2023/04/11 08:25:12;;;;;;;15.15;3.30;;;9.10;99.90;;;;;;4946762;28;20137;-55
2023/04/11 08:27:38;;;;;;;15.65;3.13;;;9.00;99.90;;;;;;4944739;28;20050;-57
2023/04/11 08:30:07;;;;;;;12.40;3.08;;;9.00;99.90;;;;;;4946765;28;20046;-58
2023/04/11 08:32:33;;;;;;;13.32;2.72;;;9.00;99.90;;;;;;4929793;28;20165;-55
2023/04/11 08:34:59;;;;;;;12.65;3.38;;;9.00;99.90;;;;;;4944526;28;20047;-54
2023/04/11 08:37:26;;;;;;;20.23;3.65;;;9.10;99.90;;;;;;4947514;28;20062;-57
2023/04/11 08:39:51;;;;;;;17.63;3.00;;;9.20;99.90;;;;;;4946572;28;20055;-54
2023/04/11 08:42:35;;;;;;;9.07;2.75;;;9.30;99.90;;;;;;4945639;28;20054;-55
2023/04/11 08:45:04;;;;;;;10.63;3.28;;;9.40;99.90;;;;;;4946902;28;20089;-57
2023/04/11 08:47:29;;;;;;;15.98;2.90;;;9.50;99.90;;;;;;4947999;28;20051;-57
2023/04/11 08:49:55;;;;;;;12.68;2.72;;;9.70;99.90;;;;;;4948999;28;20055;-58
2023/04/11 08:52:22;;;;;;;13.25;3.15;;;9.90;99.90;;;;;;4946315;28;20085;-54
2023/04/11 08:54:50;;;;;;;12.40;3.08;;;10.10;99.90;;;;;;4944318;28;20105;-57
2023/04/11 08:57:42;;;;;;;13.63;2.67;;;10.20;99.90;;;;;;4944884;28;20050;-54
2023/04/11 09:00:17;;;;;;;10.70;2.28;;;10.20;99.90;;;;;;4941584;28;20094;-58
2023/04/11 09:03:03;;;;;;;13.20;3.22;;;10.10;99.90;;;;;;4946464;28;20058;-56
2023/04/11 09:05:31;;;;;;;13.98;2.35;;;10.00;99.90;;;;;;4932025;28;20089;-57
2023/04/11 09:07:58;;;;;;;10.75;2.47;;;9.80;99.90;;;;;;4937974;28;20093;-55
2023/04/11 09:10:25;;;;;;;9.20;2.28;;;9.90;99.90;;;;;;4946112;28;20049;-58
2023/04/11 09:12:53;;;;;;;11.70;2.45;;;10.10;99.90;;;;;;4945908;28;20113;-57
2023/04/11 09:15:30;;;;;;;12.07;2.28;;;10.30;99.90;;;;;;4945012;28;20050;-55
2023/04/11 09:17:56;;;;;;;5.03;1.80;;;10.40;99.90;;;;;;4960927;28;20525;-58
2023/04/11 09:20:30;;;;;;;3.72;1.27;;;10.20;99.90;;;;;;4943880;28;20133;-58
2023/04/11 09:23:00;;;;;;;4.70;1.38;;;9.80;99.90;;;;;;4944369;28;20081;-58
2023/04/11 09:25:26;;;;;;;5.70;1.50;;;9.40;99.90;;;;;;4944761;28;20043;-57
2023/04/11 09:28:09;;;;;;;14.02;2.22;;;9.10;99.90;;;;;;4946521;28;20058;-54
2023/04/11 09:30:35;;;;;;;8.93;2.20;;;9.00;99.90;;;;;;4945280;28;20113;-56
2023/04/11 09:33:30;;;;;;;8.98;2.30;;;8.90;99.90;;;;;;4945066;28;20058;-57
2023/04/11 09:35:56;;;;;;;10.27;2.20;;;8.80;99.90;;;;;;4944553;28;20062;-57
2023/04/11 09:38:32;;;;;;;11.48;2.00;;;8.80;99.90;;;;;;4948516;28;20071;-57
2023/04/11 09:40:59;;;;;;;11.45;2.05;;;8.90;99.90;;;;;;4945100;28;20062;-56
2023/04/11 09:43:25;;;;;;;9.60;2.28;;;8.90;99.90;;;;;;4944998;28;20209;-57
2023/04/11 09:46:10;;;;;;;13.80;2.38;;;9.00;99.90;;;;;;4945351;28;20181;-56
2023/04/11 09:48:37;;;;;;;11.50;2.17;;;9.20;99.90;;;;;;4945483;28;20043;-57
2023/04/11 09:51:06;;;;;;;15.32;3.08;;;9.50;99.90;;;;;;4942776;28;20941;-54
2023/04/11 09:53:36;;;;;;;14.30;2.42;;;9.70;99.90;;;;;;4945287;28;21758;-55
2023/04/11 09:56:05;;;;;;;9.68;2.00;;;9.90;99.90;;;;;;4944496;28;20474;-57
2023/04/11 09:58:33;;;;;;;17.08;2.85;;;10.00;99.90;;;;;;4946427;28;20397;-58
2023/04/11 10:01:00;;;;;;;7.90;1.90;;;10.00;99.90;;;;;;4942350;28;20046;-57
2023/04/11 10:03:26;;;;;;;2.75;1.15;;;9.80;99.90;;;;;;4945523;28;20070;-57
2023/04/11 10:05:54;;;;;;;4.63;1.30;;;9.60;99.90;;;;;;4944703;28;20035;-55
2023/04/11 10:08:40;;;;;;;6.90;1.52;;;9.30;99.90;;;;;;4936047;28;20050;-57
2023/04/11 10:11:13;;;;;;;5.35;1.33;;;9.10;99.90;;;;;;4936158;28;20047;-57
2023/04/11 10:13:43;;;;;;;5.55;1.23;;;9.00;99.90;;;;;;4947338;28;20510;-58
2023/04/11 10:16:17;;;;;;;8.77;1.67;;;9.00;99.90;;;;;;4942450;28;20051;-58
2023/04/11 10:18:52;;;;;;;9.05;1.65;;;9.30;99.90;;;;;;4944417;28;20098;-56
2023/04/11 10:21:29;;;;;;;8.52;1.70;;;9.50;99.90;;;;;;4945923;28;20055;-57
2023/04/11 10:24:19;;;;;;;9.75;2.15;;;9.80;99.90;;;;;;4945096;28;21237;-56
2023/04/11 10:27:05;;;;;;;8.35;1.75;;;10.00;99.90;;;;;;4943709;28;20054;-56
2023/04/11 10:29:35;;;;;;;8.77;2.10;;;10.20;99.90;;;;;;4947528;28;20048;-58
2023/04/11 10:32:16;;;;;;;9.45;1.70;;;10.40;99.90;;;;;;4929998;28;20054;-57
2023/04/11 10:34:50;;;;;;;9.45;1.90;;;10.20;99.90;;;;;;4945580;28;20055;-58
2023/04/11 10:37:18;;;;;;;8.52;1.92;;;10.10;99.90;;;;;;4945021;28;20047;-57
2023/04/11 10:39:49;;;;;;;8.23;2.22;;;9.80;99.90;;;;;;4942677;28;20085;-58
2023/04/11 10:42:37;;;;;;;9.77;1.83;;;9.60;99.90;;;;;;4941617;28;20046;-56
2023/04/11 10:45:16;;;;;;;5.38;1.48;;;9.30;99.90;;;;;;4943371;28;20082;-57
2023/04/11 10:47:43;;;;;;;4.22;1.50;;;9.10;99.90;;;;;;4943452;28;20137;-57
2023/04/11 10:50:30;;;;;;;4.95;1.50;;;8.90;99.90;;;;;;4945691;28;20051;-55
2023/04/11 10:52:57;;;;;;;7.13;1.60;;;8.80;99.90;;;;;;4946402;28;20035;-57
2023/04/11 10:55:25;;;;;;;4.53;1.48;;;8.80;99.90;;;;;;4944495;28;20046;-58
2023/04/11 10:58:12;;;;;;;7.78;2.13;;;8.90;99.90;;;;;;4944149;28;20090;-54
2023/04/11 11:00:50;;;;;;;10.75;2.10;;;8.90;99.90;;;;;;4947450;28;20096;-55
2023/04/11 11:03:24;;;;;;;8.25;1.60;;;8.90;99.90;;;;;;4942281;28;20550;-58
2023/04/11 11:06:16;;;;;;;9.30;2.20;;;8.90;99.90;;;;;;4944213;28;20516;-57
2023/04/11 11:08:45;;;;;;;10.02;2.25;;;8.90;99.90;;;;;;4941955;28;20051;-56
2023/04/11 11:11:12;;;;;;;17.90;3.33;;;8.80;99.90;;;;;;4935988;28;20121;-57
2023/04/11 11:13:39;;;;;;;10.55;2.42;;;8.90;99.90;;;;;;4946066;28;22070;-56
2023/04/11 11:16:06;;;;;;;14.23;2.50;;;9.20;99.90;;;;;;4943471;28;20213;-57
2023/04/11 11:18:33;;;;;;;17.55;2.60;;;9.40;99.90;;;;;;4935407;28;20487;-56
2023/04/11 11:20:58;;;;;;;9.23;1.92;;;9.80;99.90;;;;;;4939978;28;20058;-56
2023/04/11 11:23:25;;;;;;;12.52;2.47;;;10.10;99.90;;;;;;4944822;28;20043;-57
2023/04/11 11:25:58;;;;;;;13.52;3.00;;;10.30;99.90;;;;;;4946194;28;21891;-58
2023/04/11 11:28:24;;;;;;;16.77;2.83;;;10.60;99.90;;;;;;4949143;28;20054;-55
2023/04/11 11:30:55;;;;;;;9.35;2.33;;;10.90;99.90;;;;;;4949061;28;20839;-58
2023/04/11 11:33:25;;;;;;;9.32;2.20;;;11.00;99.90;;;;;;4948238;28;20157;-56
2023/04/11 11:35:58;;;;;;;8.10;2.17;;;11.00;99.90;;;;;;4947605;28;20047;-55
2023/04/11 11:38:29;;;;;;;16.20;2.75;;;10.80;99.90;;;;;;4948371;28;20415;-57
2023/04/11 11:40:55;;;;;;;8.95;2.22;;;10.70;99.90;;;;;;4947817;28;20051;-56
2023/04/11 11:43:21;;;;;;;9.90;2.00;;;10.80;99.90;;;;;;4946167;28;20059;-58
2023/04/11 11:46:05;;;;;;;8.43;1.90;;;10.80;99.90;;;;;;4949838;28;20090;-58
2023/04/11 11:48:31;;;;;;;8.38;1.70;;;10.80;99.90;;;;;;4948934;28;20051;-59
2023/04/11 11:50:57;;;;;;;8.50;1.92;;;10.80;99.90;;;;;;4946995;28;20445;-58
2023/04/11 11:53:24;;;;;;;10.68;2.00;;;10.90;99.90;;;;;;4945500;28;20133;-58
2023/04/11 11:55:51;;;;;;;8.65;1.75;;;11.00;99.90;;;;;;4946885;28;20059;-58
2023/04/11 11:58:19;;;;;;;9.00;1.83;;;11.00;99.90;;;;;;4944989;28;20065;-58
2023/04/11 12:00:49;;;;;;;16.77;2.70;;;11.10;99.90;;;;;;4944203;28;20075;-58
2023/04/11 12:03:19;;;;;;;17.58;3.17;;;11.30;99.90;;;;;;4944804;28;20161;-57
2023/04/11 12:05:46;;;;;;;10.20;2.30;;;11.30;99.90;;;;;;4942858;28;20054;-57
2023/04/11 12:08:12;;;;;;;7.68;1.90;;;11.00;99.90;;;;;;4948037;28;20043;-58
2023/04/11 12:10:56;;;;;;;7.50;1.77;;;10.60;99.90;;;;;;4947199;28;20047;-57
2023/04/11 12:13:24;;;;;;;9.50;2.08;;;10.20;99.90;;;;;;4946206;28;20531;-59
2023/04/11 12:15:55;;;;;;;5.35;2.00;;;10.00;99.90;;;;;;4947387;28;20043;-58
2023/04/11 12:18:26;;;;;;;8.95;2.53;;;10.00;99.90;;;;;;4934102;28;20058;-59
2023/04/11 12:20:52;;;;;;;8.90;2.40;;;10.20;99.90;;;;;;4948091;28;20642;-57
2023/04/11 12:23:19;;;;;;;13.43;2.40;;;10.50;99.90;;;;;;4948250;28;20043;-59
2023/04/11 12:25:45;;;;;;;16.73;3.17;;;10.90;99.90;;;;;;4946244;28;20116;-56
2023/04/11 12:28:11;;;;;;;15.38;2.70;;;11.00;99.90;;;;;;4933975;28;20079;-58
2023/04/11 12:30:37;;;;;;;8.75;2.53;;;11.00;99.90;;;;;;4948250;28;20039;-56
2023/04/11 12:33:04;;;;;;;8.80;2.20;;;11.00;99.90;;;;;;4941405;28;20054;-51
2023/04/11 12:35:31;;;;;;;6.88;1.70;;;10.90;99.90;;;;;;4948323;28;20050;-52
2023/04/11 12:37:57;;;;;;;6.65;1.55;;;10.80;99.90;;;;;;4942167;28;20058;-56
2023/04/11 12:40:24;;;;;;;5.43;1.40;;;10.60;99.90;;;;;;4936822;28;20567;-52
2023/04/11 12:42:50;;;;;;;6.57;1.73;;;10.50;99.90;;;;;;4943080;28;20051;-52
2023/04/11 12:45:16;;;;;;;9.48;2.17;;;10.40;99.90;;;;;;4944376;28;20707;-53
2023/04/11 12:47:42;;;;;;;13.38;2.28;;;10.30;99.90;;;;;;4945195;28;20125;-56
2023/04/11 12:50:09;;;;;;;8.95;2.20;;;10.30;99.90;;;;;;4947277;28;20570;-53
2023/04/11 12:52:35;;;;;;;7.20;1.70;;;10.20;99.90;;;;;;4945960;28;20396;-56